Columbia Regional Airport
KCOU : now visible

Airfield :











YOU CAN JOIN US ON...

 
LOGIN :

Register | Disclaimer

   EN    FR    IT 

 









Legend :    VFR   Marginal VFR   IFR   Intensive IFR   Very Intensive IFR
Visi :
Ceiling :
>= 8 km
>= 3000ft
5 to 8 km
1000 to 3000 ft
1500m to 5 km
500 to 1000 ft
800 to 1500m
200 to 500 ft
< 800m
< 200 ft
Symbols :   Thunderstorms  Fog  Heavy snow  Heavy precipitations  Wind > 20 kt






- Airport Elevation : 889 ft
- IATA code : COU


KCOU - Columbia Regional

CURRENT METAR :
  • 192254Z 36019KT 10SM CLR 13/04 A2996 RMK AO2 PK WND 01026/2212 WSHFT 2205 SLP145 T01330039

EXPIRED METARs :
  • 192225Z 01016G24KT 10SM CLR 14/05 A2994 RMK AO2 PK WND 01026/2212 WSHFT 2205 T01440050
  • 192154Z 34018G23KT 10SM CLR 18/06 A2992 RMK AO2 SLP131 T01780056
  • 192054Z 34015G20KT 10SM CLR 19/06 A2991 RMK AO2 SLP127 T01890056 55006
  • 191954Z 32013KT 10SM CLR 21/06 A2991 RMK AO2 SLP127 T02060056

TAF KCOU
Valid from the 19 at 18:00 until the 20 at 18:00 UTC


191720Z 1918/2018 29010G20KT P6SM FEW250
FM200100 36012G19KT P6SM BKN060
FM200800 02008KT P6SM BKN020
FM201100 01009KT 6SM -SN BR OVC009
KZKC FIR / North America



MET'MAP, your aeronautical weather chart ! - Copyright ORBIFLY December 2007 - Disclaimer

ORBIFLY MET'MAP TEAM :

Programming & Development : Alexandra Zaïnal
Concept & original design : Baudouin d'Aumeries
Assistance for programming : Marc-Olivier Méhu
Technical & hardware support : Manuel Goepfert

Contact : metmap@orbifly.com




SOURCES & CREDITS :

   NOAA       Earth
Advisory